sensor_id;sensor_type;location;lat;lon;timestamp;P1;durP1;ratioP1;P2;durP2;ratioP2
22230;SDS011;11284;48.086;-1.652;2024-01-07T00:01:38;9.55;;;5.65;;
22230;SDS011;11284;48.086;-1.652;2024-01-07T00:04:04;11.68;;;6.20;;
22230;SDS011;11284;48.086;-1.652;2024-01-07T00:06:30;11.90;;;5.90;;
22230;SDS011;11284;48.086;-1.652;2024-01-07T00:08:56;10.70;;;5.70;;
22230;SDS011;11284;48.086;-1.652;2024-01-07T00:11:22;9.35;;;5.72;;
22230;SDS011;11284;48.086;-1.652;2024-01-07T00:13:48;10.18;;;6.03;;
22230;SDS011;11284;48.086;-1.652;2024-01-07T00:16:14;10.48;;;5.65;;
22230;SDS011;11284;48.086;-1.652;2024-01-07T00:18:40;10.80;;;5.07;;
22230;SDS011;11284;48.086;-1.652;2024-01-07T00:21:06;12.43;;;6.30;;
22230;SDS011;11284;48.086;-1.652;2024-01-07T00:23:32;12.65;;;5.80;;
22230;SDS011;11284;48.086;-1.652;2024-01-07T00:25:58;10.77;;;5.90;;
22230;SDS011;11284;48.086;-1.652;2024-01-07T00:28:24;10.77;;;5.90;;
22230;SDS011;11284;48.086;-1.652;2024-01-07T00:30:50;9.52;;;5.85;;
22230;SDS011;11284;48.086;-1.652;2024-01-07T00:33:16;10.63;;;5.97;;
22230;SDS011;11284;48.086;-1.652;2024-01-07T00:35:42;34.70;;;19.45;;
22230;SDS011;11284;48.086;-1.652;2024-01-07T00:38:08;10.63;;;6.30;;
22230;SDS011;11284;48.086;-1.652;2024-01-07T00:40:34;11.15;;;6.70;;
22230;SDS011;11284;48.086;-1.652;2024-01-07T00:43:00;12.05;;;7.00;;
22230;SDS011;11284;48.086;-1.652;2024-01-07T00:45:26;12.30;;;6.10;;
22230;SDS011;11284;48.086;-1.652;2024-01-07T00:47:52;11.38;;;6.35;;
22230;SDS011;11284;48.086;-1.652;2024-01-07T00:50:20;9.82;;;6.18;;
22230;SDS011;11284;48.086;-1.652;2024-01-07T00:52:46;9.30;;;6.63;;
22230;SDS011;11284;48.086;-1.652;2024-01-07T00:55:11;11.75;;;6.70;;
22230;SDS011;11284;48.086;-1.652;2024-01-07T00:57:37;13.60;;;6.47;;
22230;SDS011;11284;48.086;-1.652;2024-01-07T01:00:07;13.35;;;6.50;;
22230;SDS011;11284;48.086;-1.652;2024-01-07T01:02:33;10.02;;;6.22;;
22230;SDS011;11284;48.086;-1.652;2024-01-07T01:05:01;9.73;;;5.65;;
22230;SDS011;11284;48.086;-1.652;2024-01-07T01:07:27;12.20;;;5.85;;
22230;SDS011;11284;48.086;-1.652;2024-01-07T01:09:53;9.85;;;5.95;;
22230;SDS011;11284;48.086;-1.652;2024-01-07T01:12:19;11.43;;;5.80;;
22230;SDS011;11284;48.086;-1.652;2024-01-07T01:14:45;9.75;;;5.93;;
22230;SDS011;11284;48.086;-1.652;2024-01-07T01:17:11;9.18;;;5.43;;
22230;SDS011;11284;48.086;-1.652;2024-01-07T01:19:37;10.55;;;5.85;;
22230;SDS011;11284;48.086;-1.652;2024-01-07T01:22:03;11.00;;;6.40;;
22230;SDS011;11284;48.086;-1.652;2024-01-07T01:24:29;11.68;;;6.20;;
22230;SDS011;11284;48.086;-1.652;2024-01-07T01:26:55;12.93;;;5.95;;
22230;SDS011;11284;48.086;-1.652;2024-01-07T01:29:21;10.02;;;5.80;;
22230;SDS011;11284;48.086;-1.652;2024-01-07T01:31:47;12.02;;;5.80;;
22230;SDS011;11284;48.086;-1.652;2024-01-07T01:34:12;9.65;;;5.45;;
22230;SDS011;11284;48.086;-1.652;2024-01-07T01:36:38;14.23;;;5.88;;
22230;SDS011;11284;48.086;-1.652;2024-01-07T01:39:04;9.95;;;5.50;;
22230;SDS011;11284;48.086;-1.652;2024-01-07T01:41:30;9.52;;;5.70;;
22230;SDS011;11284;48.086;-1.652;2024-01-07T01:43:57;9.38;;;5.35;;
22230;SDS011;11284;48.086;-1.652;2024-01-07T01:46:23;10.13;;;6.03;;
22230;SDS011;11284;48.086;-1.652;2024-01-07T01:48:49;9.05;;;5.10;;
22230;SDS011;11284;48.086;-1.652;2024-01-07T01:51:16;9.95;;;5.22;;
22230;SDS011;11284;48.086;-1.652;2024-01-07T01:53:42;9.98;;;5.45;;
22230;SDS011;11284;48.086;-1.652;2024-01-07T01:56:08;8.88;;;5.32;;
22230;SDS011;11284;48.086;-1.652;2024-01-07T01:58:34;10.55;;;5.97;;
22230;SDS011;11284;48.086;-1.652;2024-01-07T02:01:00;12.75;;;6.10;;
22230;SDS011;11284;48.086;-1.652;2024-01-07T02:03:26;10.57;;;6.10;;
22230;SDS011;11284;48.086;-1.652;2024-01-07T02:05:52;12.05;;;5.63;;
22230;SDS011;11284;48.086;-1.652;2024-01-07T02:08:19;10.43;;;5.40;;
22230;SDS011;11284;48.086;-1.652;2024-01-07T02:10:45;10.20;;;5.70;;
22230;SDS011;11284;48.086;-1.652;2024-01-07T02:13:11;8.40;;;5.25;;
22230;SDS011;11284;48.086;-1.652;2024-01-07T02:15:37;10.02;;;5.65;;
22230;SDS011;11284;48.086;-1.652;2024-01-07T02:18:03;8.73;;;5.38;;
22230;SDS011;11284;48.086;-1.652;2024-01-07T02:20:29;9.65;;;5.25;;
22230;SDS011;11284;48.086;-1.652;2024-01-07T02:22:55;10.52;;;5.25;;
22230;SDS011;11284;48.086;-1.652;2024-01-07T02:25:24;9.90;;;4.88;;
22230;SDS011;11284;48.086;-1.652;2024-01-07T02:27:50;9.70;;;5.55;;
22230;SDS011;11284;48.086;-1.652;2024-01-07T02:30:16;11.30;;;5.60;;
22230;SDS011;11284;48.086;-1.652;2024-01-07T02:32:42;10.77;;;5.43;;
22230;SDS011;11284;48.086;-1.652;2024-01-07T02:35:08;10.70;;;5.25;;
22230;SDS011;11284;48.086;-1.652;2024-01-07T02:37:34;10.45;;;5.57;;
22230;SDS011;11284;48.086;-1.652;2024-01-07T02:40:01;9.27;;;5.25;;
22230;SDS011;11284;48.086;-1.652;2024-01-07T02:42:27;9.65;;;5.65;;
22230;SDS011;11284;48.086;-1.652;2024-01-07T02:44:53;8.77;;;5.45;;
22230;SDS011;11284;48.086;-1.652;2024-01-07T02:47:19;9.40;;;5.32;;
22230;SDS011;11284;48.086;-1.652;2024-01-07T02:49:45;9.40;;;4.97;;
22230;SDS011;11284;48.086;-1.652;2024-01-07T02:52:11;10.23;;;5.32;;
22230;SDS011;11284;48.086;-1.652;2024-01-07T02:54:36;8.77;;;5.22;;
22230;SDS011;11284;48.086;-1.652;2024-01-07T02:57:02;8.18;;;5.53;;
22230;SDS011;11284;48.086;-1.652;2024-01-07T02:59:29;8.38;;;4.78;;
22230;SDS011;11284;48.086;-1.652;2024-01-07T03:01:54;9.88;;;5.25;;
22230;SDS011;11284;48.086;-1.652;2024-01-07T03:04:21;9.40;;;5.32;;
22230;SDS011;11284;48.086;-1.652;2024-01-07T03:06:47;11.57;;;5.60;;
22230;SDS011;11284;48.086;-1.652;2024-01-07T03:09:13;9.38;;;5.15;;
22230;SDS011;11284;48.086;-1.652;2024-01-07T03:11:39;9.57;;;5.68;;
22230;SDS011;11284;48.086;-1.652;2024-01-07T03:14:06;8.50;;;5.20;;
22230;SDS011;11284;48.086;-1.652;2024-01-07T03:16:32;8.93;;;5.38;;
22230;SDS011;11284;48.086;-1.652;2024-01-07T03:18:58;9.25;;;5.50;;
22230;SDS011;11284;48.086;-1.652;2024-01-07T03:21:24;12.88;;;5.43;;
22230;SDS011;11284;48.086;-1.652;2024-01-07T03:23:50;10.00;;;5.43;;
22230;SDS011;11284;48.086;-1.652;2024-01-07T03:26:17;11.23;;;5.60;;
22230;SDS011;11284;48.086;-1.652;2024-01-07T03:28:43;9.10;;;5.35;;
22230;SDS011;11284;48.086;-1.652;2024-01-07T03:31:11;10.38;;;5.28;;
22230;SDS011;11284;48.086;-1.652;2024-01-07T03:33:38;8.68;;;5.13;;
22230;SDS011;11284;48.086;-1.652;2024-01-07T03:36:07;9.10;;;5.60;;
22230;SDS011;11284;48.086;-1.652;2024-01-07T03:38:34;11.90;;;5.05;;
22230;SDS011;11284;48.086;-1.652;2024-01-07T03:41:00;11.57;;;5.90;;
22230;SDS011;11284;48.086;-1.652;2024-01-07T03:43:26;10.20;;;5.63;;
22230;SDS011;11284;48.086;-1.652;2024-01-07T03:45:52;10.90;;;5.10;;
22230;SDS011;11284;48.086;-1.652;2024-01-07T03:48:18;10.73;;;5.32;;
22230;SDS011;11284;48.086;-1.652;2024-01-07T03:50:44;12.35;;;5.30;;
22230;SDS011;11284;48.086;-1.652;2024-01-07T03:53:10;11.30;;;5.30;;
22230;SDS011;11284;48.086;-1.652;2024-01-07T03:55:36;11.73;;;5.82;;
22230;SDS011;11284;48.086;-1.652;2024-01-07T03:58:02;11.45;;;5.30;;
22230;SDS011;11284;48.086;-1.652;2024-01-07T04:00:28;9.43;;;5.10;;
22230;SDS011;11284;48.086;-1.652;2024-01-07T04:02:54;10.80;;;5.50;;
22230;SDS011;11284;48.086;-1.652;2024-01-07T04:05:20;10.40;;;5.72;;
22230;SDS011;11284;48.086;-1.652;2024-01-07T04:07:46;10.68;;;5.40;;
22230;SDS011;11284;48.086;-1.652;2024-01-07T04:10:12;10.00;;;5.57;;
22230;SDS011;11284;48.086;-1.652;2024-01-07T04:12:38;9.25;;;5.40;;
22230;SDS011;11284;48.086;-1.652;2024-01-07T04:15:04;8.63;;;5.70;;
22230;SDS011;11284;48.086;-1.652;2024-01-07T04:17:30;9.77;;;5.75;;
22230;SDS011;11284;48.086;-1.652;2024-01-07T04:19:56;9.15;;;5.25;;
22230;SDS011;11284;48.086;-1.652;2024-01-07T04:22:22;10.07;;;5.13;;
22230;SDS011;11284;48.086;-1.652;2024-01-07T04:24:48;8.25;;;5.55;;
22230;SDS011;11284;48.086;-1.652;2024-01-07T04:27:14;8.10;;;5.10;;
22230;SDS011;11284;48.086;-1.652;2024-01-07T04:29:40;8.27;;;4.93;;
22230;SDS011;11284;48.086;-1.652;2024-01-07T04:32:06;10.20;;;5.00;;
22230;SDS011;11284;48.086;-1.652;2024-01-07T04:34:32;9.45;;;5.18;;
22230;SDS011;11284;48.086;-1.652;2024-01-07T04:36:58;8.23;;;4.22;;
22230;SDS011;11284;48.086;-1.652;2024-01-07T04:39:24;9.52;;;4.00;;
22230;SDS011;11284;48.086;-1.652;2024-01-07T04:41:51;8.75;;;4.20;;
22230;SDS011;11284;48.086;-1.652;2024-01-07T04:44:17;9.55;;;4.43;;
22230;SDS011;11284;48.086;-1.652;2024-01-07T04:46:43;9.88;;;4.72;;
22230;SDS011;11284;48.086;-1.652;2024-01-07T04:49:09;11.57;;;4.38;;
22230;SDS011;11284;48.086;-1.652;2024-01-07T04:51:35;7.57;;;4.10;;
22230;SDS011;11284;48.086;-1.652;2024-01-07T04:54:03;7.68;;;4.15;;
22230;SDS011;11284;48.086;-1.652;2024-01-07T04:56:31;8.73;;;3.40;;
22230;SDS011;11284;48.086;-1.652;2024-01-07T04:58:57;5.93;;;3.63;;
22230;SDS011;11284;48.086;-1.652;2024-01-07T05:01:23;7.72;;;3.42;;
22230;SDS011;11284;48.086;-1.652;2024-01-07T05:03:49;7.93;;;3.78;;
22230;SDS011;11284;48.086;-1.652;2024-01-07T05:06:15;10.93;;;4.47;;
22230;SDS011;11284;48.086;-1.652;2024-01-07T05:08:41;7.72;;;3.80;;
22230;SDS011;11284;48.086;-1.652;2024-01-07T05:11:07;10.63;;;4.72;;
22230;SDS011;11284;48.086;-1.652;2024-01-07T05:13:33;7.20;;;4.30;;
22230;SDS011;11284;48.086;-1.652;2024-01-07T05:16:00;9.00;;;4.53;;
22230;SDS011;11284;48.086;-1.652;2024-01-07T05:18:26;9.93;;;4.25;;
22230;SDS011;11284;48.086;-1.652;2024-01-07T05:20:52;9.05;;;4.43;;
22230;SDS011;11284;48.086;-1.652;2024-01-07T05:23:18;9.02;;;4.28;;
22230;SDS011;11284;48.086;-1.652;2024-01-07T05:25:44;9.02;;;4.07;;
22230;SDS011;11284;48.086;-1.652;2024-01-07T05:28:11;9.30;;;4.47;;
22230;SDS011;11284;48.086;-1.652;2024-01-07T05:30:37;7.50;;;3.95;;
22230;SDS011;11284;48.086;-1.652;2024-01-07T05:33:04;8.43;;;3.83;;
22230;SDS011;11284;48.086;-1.652;2024-01-07T05:35:30;6.78;;;3.63;;
22230;SDS011;11284;48.086;-1.652;2024-01-07T05:37:56;7.13;;;3.65;;
22230;SDS011;11284;48.086;-1.652;2024-01-07T05:40:22;7.25;;;3.65;;
22230;SDS011;11284;48.086;-1.652;2024-01-07T05:42:48;8.98;;;4.38;;
22230;SDS011;11284;48.086;-1.652;2024-01-07T05:45:14;8.60;;;3.97;;
22230;SDS011;11284;48.086;-1.652;2024-01-07T05:47:40;8.32;;;4.07;;
22230;SDS011;11284;48.086;-1.652;2024-01-07T05:50:06;7.75;;;3.67;;
22230;SDS011;11284;48.086;-1.652;2024-01-07T05:52:32;7.35;;;3.53;;
22230;SDS011;11284;48.086;-1.652;2024-01-07T05:54:58;6.38;;;3.45;;
22230;SDS011;11284;48.086;-1.652;2024-01-07T05:57:25;7.28;;;4.07;;
22230;SDS011;11284;48.086;-1.652;2024-01-07T05:59:51;8.40;;;3.80;;
22230;SDS011;11284;48.086;-1.652;2024-01-07T06:02:17;6.35;;;3.13;;
22230;SDS011;11284;48.086;-1.652;2024-01-07T06:04:43;8.55;;;3.72;;
22230;SDS011;11284;48.086;-1.652;2024-01-07T06:07:09;6.45;;;3.55;;
22230;SDS011;11284;48.086;-1.652;2024-01-07T06:09:35;6.10;;;3.88;;
22230;SDS011;11284;48.086;-1.652;2024-01-07T06:12:01;7.70;;;3.72;;
22230;SDS011;11284;48.086;-1.652;2024-01-07T06:14:27;8.02;;;3.85;;
22230;SDS011;11284;48.086;-1.652;2024-01-07T06:16:53;7.15;;;3.75;;
22230;SDS011;11284;48.086;-1.652;2024-01-07T06:19:21;5.63;;;3.45;;
22230;SDS011;11284;48.086;-1.652;2024-01-07T06:21:47;6.80;;;4.13;;
22230;SDS011;11284;48.086;-1.652;2024-01-07T06:24:13;6.20;;;3.67;;
22230;SDS011;11284;48.086;-1.652;2024-01-07T06:26:40;7.15;;;3.97;;
22230;SDS011;11284;48.086;-1.652;2024-01-07T06:29:06;6.97;;;3.90;;
22230;SDS011;11284;48.086;-1.652;2024-01-07T06:31:32;7.38;;;3.90;;
22230;SDS011;11284;48.086;-1.652;2024-01-07T06:33:58;7.15;;;3.92;;
22230;SDS011;11284;48.086;-1.652;2024-01-07T06:36:24;5.50;;;3.40;;
22230;SDS011;11284;48.086;-1.652;2024-01-07T06:38:50;7.53;;;3.83;;
22230;SDS011;11284;48.086;-1.652;2024-01-07T06:41:16;7.88;;;3.92;;
22230;SDS011;11284;48.086;-1.652;2024-01-07T06:43:42;6.10;;;3.72;;
22230;SDS011;11284;48.086;-1.652;2024-01-07T06:46:09;7.07;;;4.13;;
22230;SDS011;11284;48.086;-1.652;2024-01-07T06:48:35;7.88;;;3.92;;
22230;SDS011;11284;48.086;-1.652;2024-01-07T06:51:01;8.18;;;4.38;;
22230;SDS011;11284;48.086;-1.652;2024-01-07T06:53:28;7.55;;;4.43;;
22230;SDS011;11284;48.086;-1.652;2024-01-07T06:55:54;6.70;;;3.80;;
22230;SDS011;11284;48.086;-1.652;2024-01-07T06:58:20;8.00;;;3.60;;
22230;SDS011;11284;48.086;-1.652;2024-01-07T07:00:46;7.15;;;3.80;;
22230;SDS011;11284;48.086;-1.652;2024-01-07T07:03:12;8.07;;;3.90;;
22230;SDS011;11284;48.086;-1.652;2024-01-07T07:05:38;7.30;;;4.10;;
22230;SDS011;11284;48.086;-1.652;2024-01-07T07:08:04;6.38;;;3.60;;
22230;SDS011;11284;48.086;-1.652;2024-01-07T07:10:30;6.07;;;3.67;;
22230;SDS011;11284;48.086;-1.652;2024-01-07T07:12:56;7.85;;;3.55;;
22230;SDS011;11284;48.086;-1.652;2024-01-07T07:15:22;7.63;;;4.57;;
22230;SDS011;11284;48.086;-1.652;2024-01-07T07:17:51;7.18;;;4.10;;
22230;SDS011;11284;48.086;-1.652;2024-01-07T07:20:17;8.43;;;4.25;;
22230;SDS011;11284;48.086;-1.652;2024-01-07T07:22:44;8.27;;;4.32;;
22230;SDS011;11284;48.086;-1.652;2024-01-07T07:25:10;7.75;;;4.22;;
22230;SDS011;11284;48.086;-1.652;2024-01-07T07:27:36;8.10;;;4.20;;
22230;SDS011;11284;48.086;-1.652;2024-01-07T07:30:03;8.57;;;4.20;;
22230;SDS011;11284;48.086;-1.652;2024-01-07T07:32:29;8.15;;;4.28;;
22230;SDS011;11284;48.086;-1.652;2024-01-07T07:34:55;7.28;;;4.25;;
22230;SDS011;11284;48.086;-1.652;2024-01-07T07:37:21;8.07;;;4.50;;
22230;SDS011;11284;48.086;-1.652;2024-01-07T07:39:47;7.70;;;4.45;;
22230;SDS011;11284;48.086;-1.652;2024-01-07T07:42:14;9.70;;;4.43;;
22230;SDS011;11284;48.086;-1.652;2024-01-07T07:44:41;7.40;;;3.92;;
22230;SDS011;11284;48.086;-1.652;2024-01-07T07:47:07;7.93;;;4.00;;
22230;SDS011;11284;48.086;-1.652;2024-01-07T07:49:33;7.45;;;4.13;;
22230;SDS011;11284;48.086;-1.652;2024-01-07T07:52:00;9.00;;;4.55;;
22230;SDS011;11284;48.086;-1.652;2024-01-07T07:54:26;8.95;;;4.32;;
22230;SDS011;11284;48.086;-1.652;2024-01-07T07:56:52;8.73;;;4.18;;
22230;SDS011;11284;48.086;-1.652;2024-01-07T07:59:18;8.13;;;4.53;;
22230;SDS011;11284;48.086;-1.652;2024-01-07T08:01:45;7.43;;;3.78;;
22230;SDS011;11284;48.086;-1.652;2024-01-07T08:04:11;8.48;;;3.95;;
22230;SDS011;11284;48.086;-1.652;2024-01-07T08:06:37;7.75;;;4.10;;
22230;SDS011;11284;48.086;-1.652;2024-01-07T08:09:03;9.90;;;4.70;;
22230;SDS011;11284;48.086;-1.652;2024-01-07T08:11:29;8.68;;;4.65;;
22230;SDS011;11284;48.086;-1.652;2024-01-07T08:13:55;9.27;;;4.57;;
22230;SDS011;11284;48.086;-1.652;2024-01-07T08:16:22;9.13;;;4.50;;
22230;SDS011;11284;48.086;-1.652;2024-01-07T08:18:48;7.55;;;4.50;;
22230;SDS011;11284;48.086;-1.652;2024-01-07T08:21:15;8.88;;;4.53;;
22230;SDS011;11284;48.086;-1.652;2024-01-07T08:23:41;9.60;;;5.00;;
22230;SDS011;11284;48.086;-1.652;2024-01-07T08:26:07;7.97;;;4.65;;
22230;SDS011;11284;48.086;-1.652;2024-01-07T08:28:33;9.05;;;4.60;;
22230;SDS011;11284;48.086;-1.652;2024-01-07T08:30:59;8.73;;;4.70;;
22230;SDS011;11284;48.086;-1.652;2024-01-07T08:33:25;10.07;;;5.07;;
22230;SDS011;11284;48.086;-1.652;2024-01-07T08:35:51;8.23;;;4.32;;
22230;SDS011;11284;48.086;-1.652;2024-01-07T08:38:17;7.40;;;4.15;;
22230;SDS011;11284;48.086;-1.652;2024-01-07T08:40:43;7.15;;;3.60;;
22230;SDS011;11284;48.086;-1.652;2024-01-07T08:43:09;7.30;;;4.10;;
22230;SDS011;11284;48.086;-1.652;2024-01-07T08:45:35;8.25;;;4.10;;
22230;SDS011;11284;48.086;-1.652;2024-01-07T08:48:01;5.93;;;3.92;;
22230;SDS011;11284;48.086;-1.652;2024-01-07T08:50:27;8.35;;;4.00;;
22230;SDS011;11284;48.086;-1.652;2024-01-07T08:52:54;8.45;;;3.53;;
22230;SDS011;11284;48.086;-1.652;2024-01-07T08:55:21;8.85;;;4.20;;
22230;SDS011;11284;48.086;-1.652;2024-01-07T08:57:47;7.68;;;4.03;;
22230;SDS011;11284;48.086;-1.652;2024-01-07T09:00:14;8.75;;;4.05;;
22230;SDS011;11284;48.086;-1.652;2024-01-07T09:02:40;6.85;;;3.67;;
22230;SDS011;11284;48.086;-1.652;2024-01-07T09:05:06;7.95;;;4.13;;
22230;SDS011;11284;48.086;-1.652;2024-01-07T09:07:32;8.57;;;3.67;;
22230;SDS011;11284;48.086;-1.652;2024-01-07T09:09:58;8.45;;;3.80;;
22230;SDS011;11284;48.086;-1.652;2024-01-07T09:12:26;8.13;;;3.45;;
22230;SDS011;11284;48.086;-1.652;2024-01-07T09:14:52;8.57;;;3.65;;
22230;SDS011;11284;48.086;-1.652;2024-01-07T09:17:18;9.10;;;4.18;;
22230;SDS011;11284;48.086;-1.652;2024-01-07T09:19:44;8.73;;;4.28;;
22230;SDS011;11284;48.086;-1.652;2024-01-07T09:22:10;8.93;;;4.32;;
22230;SDS011;11284;48.086;-1.652;2024-01-07T09:24:36;6.85;;;3.75;;
22230;SDS011;11284;48.086;-1.652;2024-01-07T09:27:02;9.13;;;4.13;;
22230;SDS011;11284;48.086;-1.652;2024-01-07T09:29:29;6.47;;;3.45;;
22230;SDS011;11284;48.086;-1.652;2024-01-07T09:31:55;7.82;;;3.30;;
22230;SDS011;11284;48.086;-1.652;2024-01-07T09:34:21;6.63;;;3.25;;
22230;SDS011;11284;48.086;-1.652;2024-01-07T09:36:47;7.25;;;3.08;;
22230;SDS011;11284;48.086;-1.652;2024-01-07T09:39:13;6.63;;;2.97;;
22230;SDS011;11284;48.086;-1.652;2024-01-07T09:41:39;6.05;;;2.92;;
22230;SDS011;11284;48.086;-1.652;2024-01-07T09:44:05;6.18;;;2.80;;
22230;SDS011;11284;48.086;-1.652;2024-01-07T09:46:32;7.45;;;2.72;;
22230;SDS011;11284;48.086;-1.652;2024-01-07T09:48:59;7.57;;;3.13;;
22230;SDS011;11284;48.086;-1.652;2024-01-07T09:51:25;5.82;;;2.60;;
22230;SDS011;11284;48.086;-1.652;2024-01-07T09:53:54;7.60;;;2.83;;
22230;SDS011;11284;48.086;-1.652;2024-01-07T09:56:25;7.20;;;2.88;;
22230;SDS011;11284;48.086;-1.652;2024-01-07T09:58:52;6.10;;;2.65;;
22230;SDS011;11284;48.086;-1.652;2024-01-07T10:01:18;6.20;;;2.45;;
22230;SDS011;11284;48.086;-1.652;2024-01-07T10:03:44;7.38;;;2.67;;
22230;SDS011;11284;48.086;-1.652;2024-01-07T10:06:10;6.20;;;2.42;;
22230;SDS011;11284;48.086;-1.652;2024-01-07T10:08:36;8.70;;;3.13;;
22230;SDS011;11284;48.086;-1.652;2024-01-07T10:11:03;8.25;;;2.17;;
22230;SDS011;11284;48.086;-1.652;2024-01-07T10:13:29;8.15;;;2.65;;
22230;SDS011;11284;48.086;-1.652;2024-01-07T10:15:56;5.30;;;2.38;;
22230;SDS011;11284;48.086;-1.652;2024-01-07T10:18:22;7.38;;;2.58;;
22230;SDS011;11284;48.086;-1.652;2024-01-07T10:20:48;9.45;;;2.88;;
22230;SDS011;11284;48.086;-1.652;2024-01-07T10:23:18;4.80;;;2.20;;
22230;SDS011;11284;48.086;-1.652;2024-01-07T10:25:44;5.72;;;2.10;;
22230;SDS011;11284;48.086;-1.652;2024-01-07T10:28:11;8.20;;;2.17;;
22230;SDS011;11284;48.086;-1.652;2024-01-07T10:30:39;5.93;;;2.08;;
22230;SDS011;11284;48.086;-1.652;2024-01-07T10:33:05;6.13;;;2.00;;
22230;SDS011;11284;48.086;-1.652;2024-01-07T10:35:33;8.07;;;2.58;;
22230;SDS011;11284;48.086;-1.652;2024-01-07T10:38:00;6.13;;;2.35;;
22230;SDS011;11284;48.086;-1.652;2024-01-07T10:40:30;5.15;;;2.33;;
22230;SDS011;11284;48.086;-1.652;2024-01-07T10:42:58;5.05;;;2.08;;
22230;SDS011;11284;48.086;-1.652;2024-01-07T10:45:24;6.55;;;2.00;;
22230;SDS011;11284;48.086;-1.652;2024-01-07T10:47:51;6.60;;;2.05;;
22230;SDS011;11284;48.086;-1.652;2024-01-07T10:50:20;5.43;;;2.05;;
22230;SDS011;11284;48.086;-1.652;2024-01-07T10:52:50;6.05;;;1.90;;
22230;SDS011;11284;48.086;-1.652;2024-01-07T10:55:17;5.78;;;1.80;;
22230;SDS011;11284;48.086;-1.652;2024-01-07T10:57:44;6.00;;;1.90;;
22230;SDS011;11284;48.086;-1.652;2024-01-07T11:00:15;5.85;;;1.75;;
22230;SDS011;11284;48.086;-1.652;2024-01-07T11:02:53;4.40;;;1.60;;
22230;SDS011;11284;48.086;-1.652;2024-01-07T11:08:13;6.10;;;1.80;;
22230;SDS011;11284;48.086;-1.652;2024-01-07T11:10:43;6.72;;;1.80;;
22230;SDS011;11284;48.086;-1.652;2024-01-07T11:13:12;9.32;;;2.40;;
22230;SDS011;11284;48.086;-1.652;2024-01-07T11:15:56;9.75;;;2.13;;
22230;SDS011;11284;48.086;-1.652;2024-01-07T11:18:23;7.50;;;1.95;;
22230;SDS011;11284;48.086;-1.652;2024-01-07T11:20:49;6.10;;;1.80;;
22230;SDS011;11284;48.086;-1.652;2024-01-07T11:23:34;5.53;;;1.67;;
22230;SDS011;11284;48.086;-1.652;2024-01-07T11:26:04;4.55;;;1.58;;
22230;SDS011;11284;48.086;-1.652;2024-01-07T11:28:42;6.95;;;1.90;;
22230;SDS011;11284;48.086;-1.652;2024-01-07T11:31:08;4.60;;;1.63;;
22230;SDS011;11284;48.086;-1.652;2024-01-07T11:33:36;6.30;;;1.98;;
22230;SDS011;11284;48.086;-1.652;2024-01-07T11:36:02;6.15;;;1.55;;
22230;SDS011;11284;48.086;-1.652;2024-01-07T11:38:30;4.93;;;1.70;;
22230;SDS011;11284;48.086;-1.652;2024-01-07T11:40:56;4.63;;;1.50;;
22230;SDS011;11284;48.086;-1.652;2024-01-07T11:43:24;8.13;;;2.10;;
22230;SDS011;11284;48.086;-1.652;2024-01-07T11:45:50;5.25;;;2.00;;
22230;SDS011;11284;48.086;-1.652;2024-01-07T11:48:16;5.70;;;1.58;;
22230;SDS011;11284;48.086;-1.652;2024-01-07T11:50:42;6.28;;;1.95;;
22230;SDS011;11284;48.086;-1.652;2024-01-07T11:53:08;10.77;;;5.72;;
22230;SDS011;11284;48.086;-1.652;2024-01-07T11:55:34;8.18;;;3.30;;
22230;SDS011;11284;48.086;-1.652;2024-01-07T11:58:01;6.80;;;1.73;;
22230;SDS011;11284;48.086;-1.652;2024-01-07T12:00:30;7.63;;;3.08;;
22230;SDS011;11284;48.086;-1.652;2024-01-07T12:02:57;6.82;;;2.10;;
22230;SDS011;11284;48.086;-1.652;2024-01-07T12:05:23;8.95;;;2.40;;
22230;SDS011;11284;48.086;-1.652;2024-01-07T12:07:49;6.88;;;2.38;;
22230;SDS011;11284;48.086;-1.652;2024-01-07T12:10:15;8.13;;;2.30;;
22230;SDS011;11284;48.086;-1.652;2024-01-07T12:12:42;8.88;;;3.03;;
22230;SDS011;11284;48.086;-1.652;2024-01-07T12:15:09;8.77;;;3.45;;
22230;SDS011;11284;48.086;-1.652;2024-01-07T12:17:38;10.48;;;3.90;;
22230;SDS011;11284;48.086;-1.652;2024-01-07T12:20:04;6.28;;;2.63;;
22230;SDS011;11284;48.086;-1.652;2024-01-07T12:22:32;4.40;;;1.90;;
22230;SDS011;11284;48.086;-1.652;2024-01-07T12:25:07;6.50;;;1.80;;
22230;SDS011;11284;48.086;-1.652;2024-01-07T12:27:33;9.23;;;3.00;;
22230;SDS011;11284;48.086;-1.652;2024-01-07T12:30:00;5.45;;;2.30;;
22230;SDS011;11284;48.086;-1.652;2024-01-07T12:32:27;7.00;;;1.90;;
22230;SDS011;11284;48.086;-1.652;2024-01-07T12:34:56;7.55;;;2.10;;
22230;SDS011;11284;48.086;-1.652;2024-01-07T12:37:22;6.80;;;2.00;;
22230;SDS011;11284;48.086;-1.652;2024-01-07T12:39:49;6.18;;;1.80;;
22230;SDS011;11284;48.086;-1.652;2024-01-07T12:42:15;8.57;;;2.33;;
22230;SDS011;11284;48.086;-1.652;2024-01-07T12:44:41;6.68;;;1.70;;
22230;SDS011;11284;48.086;-1.652;2024-01-07T12:47:07;5.10;;;1.88;;
22230;SDS011;11284;48.086;-1.652;2024-01-07T12:49:33;5.35;;;1.70;;
22230;SDS011;11284;48.086;-1.652;2024-01-07T12:51:59;6.80;;;1.50;;
22230;SDS011;11284;48.086;-1.652;2024-01-07T12:54:25;6.35;;;1.85;;
22230;SDS011;11284;48.086;-1.652;2024-01-07T12:56:51;6.93;;;1.80;;
22230;SDS011;11284;48.086;-1.652;2024-01-07T12:59:17;5.35;;;1.40;;
22230;SDS011;11284;48.086;-1.652;2024-01-07T13:01:43;5.70;;;1.40;;
22230;SDS011;11284;48.086;-1.652;2024-01-07T13:04:09;5.43;;;1.70;;
22230;SDS011;11284;48.086;-1.652;2024-01-07T13:06:35;9.73;;;4.05;;
22230;SDS011;11284;48.086;-1.652;2024-01-07T13:09:02;6.97;;;2.08;;
22230;SDS011;11284;48.086;-1.652;2024-01-07T13:11:29;5.78;;;2.15;;
22230;SDS011;11284;48.086;-1.652;2024-01-07T13:13:55;6.72;;;3.03;;
22230;SDS011;11284;48.086;-1.652;2024-01-07T13:16:25;8.25;;;2.13;;
22230;SDS011;11284;48.086;-1.652;2024-01-07T13:18:52;5.75;;;1.42;;
22230;SDS011;11284;48.086;-1.652;2024-01-07T13:21:18;8.38;;;1.98;;
22230;SDS011;11284;48.086;-1.652;2024-01-07T13:23:45;4.90;;;1.52;;
22230;SDS011;11284;48.086;-1.652;2024-01-07T13:26:12;5.78;;;1.40;;
22230;SDS011;11284;48.086;-1.652;2024-01-07T13:28:38;6.13;;;1.60;;
22230;SDS011;11284;48.086;-1.652;2024-01-07T13:31:04;4.72;;;1.38;;
22230;SDS011;11284;48.086;-1.652;2024-01-07T13:33:31;5.28;;;1.55;;
22230;SDS011;11284;48.086;-1.652;2024-01-07T13:35:58;4.28;;;1.30;;
22230;SDS011;11284;48.086;-1.652;2024-01-07T13:38:24;4.90;;;1.10;;
22230;SDS011;11284;48.086;-1.652;2024-01-07T13:40:50;4.43;;;1.60;;
22230;SDS011;11284;48.086;-1.652;2024-01-07T13:43:16;4.60;;;1.45;;
22230;SDS011;11284;48.086;-1.652;2024-01-07T13:45:42;5.28;;;1.73;;
22230;SDS011;11284;48.086;-1.652;2024-01-07T13:48:08;4.95;;;1.45;;
22230;SDS011;11284;48.086;-1.652;2024-01-07T13:50:34;5.80;;;2.10;;
22230;SDS011;11284;48.086;-1.652;2024-01-07T13:53:01;4.32;;;1.23;;
22230;SDS011;11284;48.086;-1.652;2024-01-07T13:55:27;6.07;;;2.30;;
22230;SDS011;11284;48.086;-1.652;2024-01-07T13:57:53;5.10;;;1.20;;
22230;SDS011;11284;48.086;-1.652;2024-01-07T14:00:19;6.22;;;1.48;;
22230;SDS011;11284;48.086;-1.652;2024-01-07T14:02:45;4.88;;;1.35;;
22230;SDS011;11284;48.086;-1.652;2024-01-07T14:05:12;4.32;;;1.30;;
22230;SDS011;11284;48.086;-1.652;2024-01-07T14:07:38;3.90;;;1.20;;
22230;SDS011;11284;48.086;-1.652;2024-01-07T14:10:05;6.00;;;1.50;;
22230;SDS011;11284;48.086;-1.652;2024-01-07T14:12:31;5.07;;;1.35;;
22230;SDS011;11284;48.086;-1.652;2024-01-07T14:14:57;5.00;;;1.40;;
22230;SDS011;11284;48.086;-1.652;2024-01-07T14:17:26;5.32;;;1.17;;
22230;SDS011;11284;48.086;-1.652;2024-01-07T14:19:52;7.63;;;1.40;;
22230;SDS011;11284;48.086;-1.652;2024-01-07T14:22:21;5.20;;;1.55;;
22230;SDS011;11284;48.086;-1.652;2024-01-07T14:24:47;4.55;;;0.90;;
22230;SDS011;11284;48.086;-1.652;2024-01-07T14:27:14;4.40;;;1.20;;
22230;SDS011;11284;48.086;-1.652;2024-01-07T14:29:41;4.13;;;1.17;;